Flight Track Log - Related Links

Times and Time Zones

All times are in EDT time to prevent confusion due to time zone crossing. See the N6319G flight status page for this flight to view local times or setup timezone preferences in your user account.

Time Position Orientation Groundspeed Altitude Reporting Facility
EDT Latitude Longitude Course Direction KTS MPH feet Rate Location/Type
Sat 01:19:00 PM 42.5765 -90.7562 348° North  Level FlightAware Approximate
Sat 01:20:00 PM 42.6060 -90.7650 348° North  Level FlightAware Approximate
Sat 01:21:00 PM 42.6355 -90.7739 348° North  Level FlightAware Approximate
Sat 01:22:00 PM 42.6650 -90.7827 348° North  Level FlightAware Approximate
Sat 01:23:00 PM 42.6945 -90.7916 348° North  Level FlightAware Approximate
Sat 01:24:00 PM 42.7241 -90.8004 348° North  Level FlightAware Approximate
Sat 01:25:00 PM 42.7536 -90.8093 348° North  Level FlightAware Approximate
Sat 01:26:00 PM 42.7831 -90.8182 348° North  Level FlightAware Approximate
Sat 01:27:00 PM 42.8126 -90.8271 348° North  Level FlightAware Approximate
Sat 01:28:00 PM 42.8420 -90.8362 346° North  Level FlightAware Approximate
Sat 01:29:00 PM 42.8714 -90.8460 346° North  Level FlightAware Approximate
Sat 01:30:00 PM 42.9008 -90.8558 346° North  Level FlightAware Approximate
Sat 01:31:00 PM 42.9301 -90.8656 346° North  Level FlightAware Approximate
Sat 01:32:00 PM 42.9595 -90.8754 346° North  Level FlightAware Approximate
Sat 01:33:00 PM 42.9889 -90.8849 349° North  Level FlightAware Approximate
Sat 01:33:23 PM 42.9806 -90.8814 349° North 113 130 4,000  Level Minneapolis Center
Sat 01:36:17 PM 43.0700 -90.9089 348° North 113 130 4,000  Level Minneapolis Center
Sat 01:44:36 PM 43.2667 -90.9675 343° North 109 125 4,000  Level Minneapolis Center
Sat 01:45:00 PM 43.3258 -90.9909 337° Northwest  Level FlightAware Approximate
Sat 01:45:38 PM 43.2975 -90.9781 346° North 109 125 4,000  Level Minneapolis Center
Sat 01:46:00 PM 43.3537 -91.0068 337° Northwest  Level FlightAware Approximate
Sat 01:46:40 PM 43.3275 -90.9922 341° North 109 125 4,000  Level Minneapolis Center
Sat 01:47:00 PM 43.3816 -91.0228 337° Northwest  Level FlightAware Approximate
Sat 01:47:42 PM 43.3575 -91.0075 340° North 109 125 4,000  Level Minneapolis Center
Sat 01:48:00 PM 43.4098 -91.0375 343° North  Level FlightAware Approximate
Sat 01:48:44 PM 43.3883 -91.0217 342° North 109 125 4,000  Level Minneapolis Center
Sat 01:49:00 PM 43.4387 -91.0498 343° North  Level FlightAware Approximate
Sat 01:49:46 PM 43.4144 -91.0336 342° North 110 127 4,000  Level Minneapolis Center
Sat 01:50:48 PM 43.4508 -91.0506 341° North 114 131 4,000  Level Minneapolis Center
Sat 01:51:51 PM 43.4828 -91.0658 341° North 114 131 4,000  Level Minneapolis Center
Sat 01:52:53 PM 43.5122 -91.0792 342° North 114 131 4,000  Level Minneapolis Center
Sat 01:53:55 PM 43.5444 -91.0919 344° North 114 131 4,000  Level Minneapolis Center
Sat 01:54:57 PM 43.5764 -91.1028 346° North 114 131 4,000  Level Minneapolis Center
Sat 01:55:59 PM 43.6086 -91.1142 346° North 114 131 4,000  Level Minneapolis Center
Sat 01:57:01 PM 43.6386 -91.1247 346° North 112 129 4,000  Level Minneapolis Center
Sat 01:58:03 PM 43.6694 -91.1372 344° North 112 129 4,000  Level Minneapolis Center
Sat 01:59:06 PM 43.7003 -91.1544 338° Northwest 112 129 4,000 -288 Level Minneapolis Center
Sat 02:00:08 PM 43.7300 -91.1711 338° Northwest 115 132 3,400 -726 Descending Minneapolis Center
Sat 02:01:10 PM 43.7619 -91.1886 338° Northwest 116 133 2,500 -871 Descending Minneapolis Center
Sat 02:03:00 PM 43.8139 -91.2152 340° North  Level FlightAware Approximate
Sat 02:10:00 PM 43.8667 -91.2500 334° Northwest  Level FlightAware Approximate
Sat 02:11:00 PM 43.8793 -91.2566 180° South  Level Estimated
Sat 02:12:00 PM 43.8793 -91.2566 334° Northwest  Level Estimated

Login

Don't have an account? Register now (free) for customized features, flight alerts, and more!